Terminal Aerodrome Forecast
Issued by NWS

Home | Current Version | Previous Version | Text Only | Print | Product List | Glossary On
Versions: 1 2 3 4 5 6 7 8 9 10 11 12 13 14 15 16 17 18 19
000
FTUS46 KLOX 272342
TAFOXR
TAF
KOXR 272342Z 2800/2824 27012KT P6SM SKC
     FM280300 VRB03KT P6SM SKC
     FM281000 VRB03KT 5SM BR OVC012
     FM282000 23008KT P6SM BKN015
     FM282200 23008KT P6SM SCT015=

USA.gov is the U.S. government's official web portal to all federal, state and local government web resources and services.